sensor_id;sensor_type;location;lat;lon;timestamp;P1;durP1;ratioP1;P2;durP2;ratioP2
10805;SDS011;5455;53.224;6.000;2023-03-21T00:00:39;13.47;;;5.87;;
10805;SDS011;5455;53.224;6.000;2023-03-21T00:03:07;16.77;;;7.70;;
10805;SDS011;5455;53.224;6.000;2023-03-21T00:05:38;13.17;;;7.43;;
10805;SDS011;5455;53.224;6.000;2023-03-21T00:08:11;15.70;;;7.90;;
10805;SDS011;5455;53.224;6.000;2023-03-21T00:10:38;17.50;;;8.40;;
10805;SDS011;5455;53.224;6.000;2023-03-21T00:13:14;17.90;;;10.50;;
10805;SDS011;5455;53.224;6.000;2023-03-21T00:15:41;20.67;;;10.27;;
10805;SDS011;5455;53.224;6.000;2023-03-21T00:18:43;24.43;;;10.60;;
10805;SDS011;5455;53.224;6.000;2023-03-21T00:21:16;25.00;;;11.93;;
10805;SDS011;5455;53.224;6.000;2023-03-21T00:24:08;24.03;;;10.77;;
10805;SDS011;5455;53.224;6.000;2023-03-21T00:26:35;22.33;;;11.07;;
10805;SDS011;5455;53.224;6.000;2023-03-21T00:29:03;24.83;;;10.67;;
10805;SDS011;5455;53.224;6.000;2023-03-21T00:31:31;22.20;;;12.10;;
10805;SDS011;5455;53.224;6.000;2023-03-21T00:33:58;24.43;;;11.27;;
10805;SDS011;5455;53.224;6.000;2023-03-21T00:36:28;27.87;;;12.47;;
10805;SDS011;5455;53.224;6.000;2023-03-21T00:38:57;24.67;;;11.63;;
10805;SDS011;5455;53.224;6.000;2023-03-21T00:41:26;27.30;;;11.57;;
10805;SDS011;5455;53.224;6.000;2023-03-21T00:44:08;26.43;;;12.47;;
10805;SDS011;5455;53.224;6.000;2023-03-21T00:46:41;23.87;;;11.27;;
10805;SDS011;5455;53.224;6.000;2023-03-21T00:49:26;24.87;;;11.80;;
10805;SDS011;5455;53.224;6.000;2023-03-21T00:51:53;19.67;;;10.63;;
10805;SDS011;5455;53.224;6.000;2023-03-21T00:54:24;18.80;;;9.57;;
10805;SDS011;5455;53.224;6.000;2023-03-21T00:56:52;17.90;;;9.00;;
10805;SDS011;5455;53.224;6.000;2023-03-21T00:59:20;15.17;;;7.57;;
10805;SDS011;5455;53.224;6.000;2023-03-21T01:01:48;16.27;;;8.93;;
10805;SDS011;5455;53.224;6.000;2023-03-21T01:04:15;11.80;;;6.80;;
10805;SDS011;5455;53.224;6.000;2023-03-21T01:06:42;10.73;;;6.80;;
10805;SDS011;5455;53.224;6.000;2023-03-21T01:09:18;11.83;;;7.10;;
10805;SDS011;5455;53.224;6.000;2023-03-21T01:11:48;11.47;;;7.23;;
10805;SDS011;5455;53.224;6.000;2023-03-21T01:14:16;15.03;;;8.73;;
10805;SDS011;5455;53.224;6.000;2023-03-21T01:16:49;16.70;;;9.07;;
10805;SDS011;5455;53.224;6.000;2023-03-21T01:19:20;20.17;;;10.07;;
10805;SDS011;5455;53.224;6.000;2023-03-21T01:21:58;20.97;;;11.43;;
10805;SDS011;5455;53.224;6.000;2023-03-21T01:24:26;22.37;;;11.87;;
10805;SDS011;5455;53.224;6.000;2023-03-21T01:26:53;18.17;;;10.37;;
10805;SDS011;5455;53.224;6.000;2023-03-21T01:29:21;22.27;;;11.70;;
10805;SDS011;5455;53.224;6.000;2023-03-21T01:31:47;23.73;;;12.53;;
10805;SDS011;5455;53.224;6.000;2023-03-21T01:34:14;25.00;;;13.17;;
10805;SDS011;5455;53.224;6.000;2023-03-21T01:36:42;21.60;;;11.13;;
10805;SDS011;5455;53.224;6.000;2023-03-21T01:39:14;21.27;;;12.13;;
10805;SDS011;5455;53.224;6.000;2023-03-21T01:41:41;22.23;;;11.40;;
10805;SDS011;5455;53.224;6.000;2023-03-21T01:44:28;20.90;;;11.00;;
10805;SDS011;5455;53.224;6.000;2023-03-21T01:46:55;15.17;;;9.03;;
10805;SDS011;5455;53.224;6.000;2023-03-21T01:50:00;19.00;;;10.03;;
10805;SDS011;5455;53.224;6.000;2023-03-21T01:52:40;18.87;;;9.87;;
10805;SDS011;5455;53.224;6.000;2023-03-21T01:55:11;19.97;;;9.97;;
10805;SDS011;5455;53.224;6.000;2023-03-21T01:58:01;15.77;;;8.57;;
10805;SDS011;5455;53.224;6.000;2023-03-21T02:01:02;15.60;;;8.67;;
10805;SDS011;5455;53.224;6.000;2023-03-21T02:03:39;14.93;;;8.97;;
10805;SDS011;5455;53.224;6.000;2023-03-21T02:07:18;15.43;;;8.83;;
10805;SDS011;5455;53.224;6.000;2023-03-21T02:09:45;14.10;;;8.00;;
10805;SDS011;5455;53.224;6.000;2023-03-21T02:12:18;12.47;;;8.17;;
10805;SDS011;5455;53.224;6.000;2023-03-21T02:14:47;13.80;;;8.00;;
10805;SDS011;5455;53.224;6.000;2023-03-21T02:25:55;10.80;;;7.60;;
10805;SDS011;5455;53.224;6.000;2023-03-21T02:28:31;14.17;;;8.13;;
10805;SDS011;5455;53.224;6.000;2023-03-21T02:31:17;11.53;;;6.67;;
10805;SDS011;5455;53.224;6.000;2023-03-21T02:42:33;11.47;;;7.53;;
10805;SDS011;5455;53.224;6.000;2023-03-21T02:47:52;9.20;;;6.50;;
10805;SDS011;5455;53.224;6.000;2023-03-21T02:50:33;10.80;;;6.87;;
10805;SDS011;5455;53.224;6.000;2023-03-21T02:53:23;9.77;;;6.63;;
10805;SDS011;5455;53.224;6.000;2023-03-21T02:55:55;9.13;;;6.07;;
10805;SDS011;5455;53.224;6.000;2023-03-21T02:58:25;9.60;;;5.87;;
10805;SDS011;5455;53.224;6.000;2023-03-21T03:00:57;8.90;;;5.43;;
10805;SDS011;5455;53.224;6.000;2023-03-21T03:03:32;7.47;;;5.63;;
10805;SDS011;5455;53.224;6.000;2023-03-21T03:06:03;8.30;;;5.30;;
10805;SDS011;5455;53.224;6.000;2023-03-21T03:11:40;8.53;;;5.60;;
10805;SDS011;5455;53.224;6.000;2023-03-21T03:25:28;6.83;;;4.87;;
10805;SDS011;5455;53.224;6.000;2023-03-21T03:28:11;7.43;;;5.10;;
10805;SDS011;5455;53.224;6.000;2023-03-21T03:30:41;8.67;;;5.37;;
10805;SDS011;5455;53.224;6.000;2023-03-21T03:33:27;7.47;;;5.37;;
10805;SDS011;5455;53.224;6.000;2023-03-21T03:35:56;9.17;;;5.23;;
10805;SDS011;5455;53.224;6.000;2023-03-21T03:38:33;10.07;;;5.57;;
10805;SDS011;5455;53.224;6.000;2023-03-21T03:41:15;8.23;;;5.23;;
10805;SDS011;5455;53.224;6.000;2023-03-21T03:43:54;7.67;;;5.27;;
10805;SDS011;5455;53.224;6.000;2023-03-21T03:49:00;8.37;;;5.17;;
10805;SDS011;5455;53.224;6.000;2023-03-21T03:51:32;10.03;;;5.40;;
10805;SDS011;5455;53.224;6.000;2023-03-21T03:54:18;8.83;;;5.77;;
10805;SDS011;5455;53.224;6.000;2023-03-21T03:56:51;9.40;;;5.87;;
10805;SDS011;5455;53.224;6.000;2023-03-21T03:59:18;7.97;;;5.57;;
10805;SDS011;5455;53.224;6.000;2023-03-21T04:02:08;9.20;;;6.60;;
10805;SDS011;5455;53.224;6.000;2023-03-21T04:04:36;11.80;;;5.97;;
10805;SDS011;5455;53.224;6.000;2023-03-21T04:07:06;8.50;;;5.47;;
10805;SDS011;5455;53.224;6.000;2023-03-21T04:09:36;9.23;;;6.27;;
10805;SDS011;5455;53.224;6.000;2023-03-21T04:12:12;10.10;;;6.33;;
10805;SDS011;5455;53.224;6.000;2023-03-21T04:14:49;10.27;;;6.13;;
10805;SDS011;5455;53.224;6.000;2023-03-21T04:17:18;9.77;;;5.40;;
10805;SDS011;5455;53.224;6.000;2023-03-21T04:19:46;9.70;;;6.23;;
10805;SDS011;5455;53.224;6.000;2023-03-21T04:22:13;11.47;;;6.63;;
10805;SDS011;5455;53.224;6.000;2023-03-21T04:24:42;11.83;;;6.60;;
10805;SDS011;5455;53.224;6.000;2023-03-21T04:27:11;11.13;;;6.63;;
10805;SDS011;5455;53.224;6.000;2023-03-21T04:29:57;9.90;;;6.63;;
10805;SDS011;5455;53.224;6.000;2023-03-21T04:32:37;11.03;;;6.03;;
10805;SDS011;5455;53.224;6.000;2023-03-21T04:35:12;9.30;;;6.10;;
10805;SDS011;5455;53.224;6.000;2023-03-21T04:37:39;11.70;;;5.90;;
10805;SDS011;5455;53.224;6.000;2023-03-21T04:40:12;10.47;;;6.17;;
10805;SDS011;5455;53.224;6.000;2023-03-21T04:42:44;11.03;;;6.47;;
10805;SDS011;5455;53.224;6.000;2023-03-21T04:45:12;10.10;;;6.43;;
10805;SDS011;5455;53.224;6.000;2023-03-21T04:47:43;10.20;;;6.53;;
10805;SDS011;5455;53.224;6.000;2023-03-21T04:50:10;10.63;;;5.83;;
10805;SDS011;5455;53.224;6.000;2023-03-21T04:52:39;12.77;;;6.67;;
10805;SDS011;5455;53.224;6.000;2023-03-21T04:55:06;7.57;;;5.20;;
10805;SDS011;5455;53.224;6.000;2023-03-21T04:57:37;10.03;;;5.67;;
10805;SDS011;5455;53.224;6.000;2023-03-21T05:00:05;9.63;;;5.73;;
10805;SDS011;5455;53.224;6.000;2023-03-21T05:02:37;7.87;;;5.23;;
10805;SDS011;5455;53.224;6.000;2023-03-21T05:05:05;7.73;;;4.87;;
10805;SDS011;5455;53.224;6.000;2023-03-21T05:07:32;7.83;;;4.53;;
10805;SDS011;5455;53.224;6.000;2023-03-21T05:10:00;7.47;;;4.73;;
10805;SDS011;5455;53.224;6.000;2023-03-21T05:12:29;8.47;;;4.93;;
10805;SDS011;5455;53.224;6.000;2023-03-21T05:14:56;8.67;;;5.17;;
10805;SDS011;5455;53.224;6.000;2023-03-21T05:17:23;7.80;;;5.13;;
10805;SDS011;5455;53.224;6.000;2023-03-21T05:19:50;8.13;;;4.73;;
10805;SDS011;5455;53.224;6.000;2023-03-21T05:22:18;7.47;;;4.73;;
10805;SDS011;5455;53.224;6.000;2023-03-21T05:24:46;7.13;;;5.00;;
10805;SDS011;5455;53.224;6.000;2023-03-21T05:27:36;6.70;;;4.50;;
10805;SDS011;5455;53.224;6.000;2023-03-21T05:30:09;5.63;;;3.90;;
10805;SDS011;5455;53.224;6.000;2023-03-21T05:32:39;6.27;;;4.50;;
10805;SDS011;5455;53.224;6.000;2023-03-21T05:35:09;6.57;;;4.47;;
10805;SDS011;5455;53.224;6.000;2023-03-21T05:37:36;6.50;;;4.50;;
10805;SDS011;5455;53.224;6.000;2023-03-21T05:40:05;7.60;;;4.90;;
10805;SDS011;5455;53.224;6.000;2023-03-21T05:42:35;7.40;;;5.17;;
10805;SDS011;5455;53.224;6.000;2023-03-21T05:45:11;7.23;;;4.90;;
10805;SDS011;5455;53.224;6.000;2023-03-21T05:47:38;6.10;;;4.90;;
10805;SDS011;5455;53.224;6.000;2023-03-21T05:50:06;6.67;;;4.87;;
10805;SDS011;5455;53.224;6.000;2023-03-21T05:52:35;7.37;;;5.30;;
10805;SDS011;5455;53.224;6.000;2023-03-21T05:55:09;7.30;;;5.17;;
10805;SDS011;5455;53.224;6.000;2023-03-21T05:57:36;6.10;;;4.77;;
10805;SDS011;5455;53.224;6.000;2023-03-21T06:00:17;9.03;;;6.20;;
10805;SDS011;5455;53.224;6.000;2023-03-21T06:03:06;6.87;;;4.90;;
10805;SDS011;5455;53.224;6.000;2023-03-21T06:06:11;7.80;;;5.20;;
10805;SDS011;5455;53.224;6.000;2023-03-21T06:08:47;8.40;;;5.03;;
10805;SDS011;5455;53.224;6.000;2023-03-21T06:11:24;8.90;;;5.37;;
10805;SDS011;5455;53.224;6.000;2023-03-21T06:14:17;6.87;;;4.93;;
10805;SDS011;5455;53.224;6.000;2023-03-21T06:16:59;6.73;;;4.57;;
10805;SDS011;5455;53.224;6.000;2023-03-21T06:19:26;6.83;;;5.00;;
10805;SDS011;5455;53.224;6.000;2023-03-21T06:22:06;8.23;;;5.40;;
10805;SDS011;5455;53.224;6.000;2023-03-21T06:24:37;5.67;;;3.73;;
10805;SDS011;5455;53.224;6.000;2023-03-21T06:27:04;5.80;;;4.10;;
10805;SDS011;5455;53.224;6.000;2023-03-21T06:29:44;5.43;;;3.33;;
10805;SDS011;5455;53.224;6.000;2023-03-21T06:32:12;6.37;;;3.97;;
10805;SDS011;5455;53.224;6.000;2023-03-21T06:34:39;6.23;;;4.43;;
10805;SDS011;5455;53.224;6.000;2023-03-21T06:37:08;5.23;;;3.93;;
10805;SDS011;5455;53.224;6.000;2023-03-21T06:39:36;5.37;;;3.50;;
10805;SDS011;5455;53.224;6.000;2023-03-21T06:42:03;5.80;;;4.13;;
10805;SDS011;5455;53.224;6.000;2023-03-21T06:44:30;5.13;;;4.07;;
10805;SDS011;5455;53.224;6.000;2023-03-21T06:47:01;5.73;;;4.27;;
10805;SDS011;5455;53.224;6.000;2023-03-21T06:49:29;6.73;;;5.03;;
10805;SDS011;5455;53.224;6.000;2023-03-21T06:52:00;5.30;;;4.57;;
10805;SDS011;5455;53.224;6.000;2023-03-21T06:54:28;7.47;;;4.50;;
10805;SDS011;5455;53.224;6.000;2023-03-21T06:56:59;6.63;;;5.13;;
10805;SDS011;5455;53.224;6.000;2023-03-21T06:59:29;7.07;;;5.07;;
10805;SDS011;5455;53.224;6.000;2023-03-21T07:02:03;5.23;;;4.30;;
10805;SDS011;5455;53.224;6.000;2023-03-21T07:04:34;5.97;;;4.57;;
10805;SDS011;5455;53.224;6.000;2023-03-21T07:07:04;5.60;;;4.30;;
10805;SDS011;5455;53.224;6.000;2023-03-21T07:09:31;5.60;;;4.23;;
10805;SDS011;5455;53.224;6.000;2023-03-21T07:12:03;4.67;;;4.17;;
10805;SDS011;5455;53.224;6.000;2023-03-21T07:14:43;4.97;;;4.17;;
10805;SDS011;5455;53.224;6.000;2023-03-21T07:17:10;4.37;;;3.67;;
10805;SDS011;5455;53.224;6.000;2023-03-21T07:19:38;5.17;;;4.20;;
10805;SDS011;5455;53.224;6.000;2023-03-21T07:22:05;4.87;;;4.30;;
10805;SDS011;5455;53.224;6.000;2023-03-21T07:24:32;4.97;;;4.30;;
10805;SDS011;5455;53.224;6.000;2023-03-21T07:26:59;5.23;;;4.50;;
10805;SDS011;5455;53.224;6.000;2023-03-21T07:29:26;5.07;;;4.10;;
10805;SDS011;5455;53.224;6.000;2023-03-21T07:31:54;6.30;;;5.10;;
10805;SDS011;5455;53.224;6.000;2023-03-21T07:34:21;4.57;;;3.50;;
10805;SDS011;5455;53.224;6.000;2023-03-21T07:36:49;6.20;;;4.57;;
10805;SDS011;5455;53.224;6.000;2023-03-21T07:39:16;5.17;;;4.33;;
10805;SDS011;5455;53.224;6.000;2023-03-21T07:41:43;4.80;;;4.30;;
10805;SDS011;5455;53.224;6.000;2023-03-21T07:44:23;5.93;;;4.37;;
10805;SDS011;5455;53.224;6.000;2023-03-21T07:47:00;5.13;;;4.03;;
10805;SDS011;5455;53.224;6.000;2023-03-21T07:49:27;4.50;;;3.90;;
10805;SDS011;5455;53.224;6.000;2023-03-21T07:51:55;4.23;;;3.70;;
10805;SDS011;5455;53.224;6.000;2023-03-21T07:54:22;5.17;;;4.10;;
10805;SDS011;5455;53.224;6.000;2023-03-21T07:56:50;4.03;;;3.60;;
10805;SDS011;5455;53.224;6.000;2023-03-21T07:59:17;4.87;;;3.40;;
10805;SDS011;5455;53.224;6.000;2023-03-21T08:01:44;3.73;;;3.30;;
10805;SDS011;5455;53.224;6.000;2023-03-21T08:04:11;4.10;;;3.23;;
10805;SDS011;5455;53.224;6.000;2023-03-21T08:06:39;5.17;;;3.77;;
10805;SDS011;5455;53.224;6.000;2023-03-21T08:09:06;3.83;;;3.43;;
10805;SDS011;5455;53.224;6.000;2023-03-21T08:11:33;3.50;;;3.07;;
10805;SDS011;5455;53.224;6.000;2023-03-21T08:14:00;3.90;;;3.50;;
10805;SDS011;5455;53.224;6.000;2023-03-21T08:16:27;4.23;;;3.50;;
10805;SDS011;5455;53.224;6.000;2023-03-21T08:18:54;3.93;;;3.30;;
10805;SDS011;5455;53.224;6.000;2023-03-21T08:21:22;4.03;;;3.30;;
10805;SDS011;5455;53.224;6.000;2023-03-21T08:23:49;3.67;;;3.00;;
10805;SDS011;5455;53.224;6.000;2023-03-21T08:26:16;4.53;;;3.67;;
10805;SDS011;5455;53.224;6.000;2023-03-21T08:28:44;5.70;;;4.27;;
10805;SDS011;5455;53.224;6.000;2023-03-21T08:31:12;4.87;;;4.10;;
10805;SDS011;5455;53.224;6.000;2023-03-21T08:33:40;6.70;;;4.00;;
10805;SDS011;5455;53.224;6.000;2023-03-21T08:36:07;6.67;;;4.13;;
10805;SDS011;5455;53.224;6.000;2023-03-21T08:38:35;5.37;;;4.30;;
10805;SDS011;5455;53.224;6.000;2023-03-21T08:41:02;4.53;;;3.60;;
10805;SDS011;5455;53.224;6.000;2023-03-21T08:43:29;6.20;;;4.20;;
10805;SDS011;5455;53.224;6.000;2023-03-21T08:45:57;5.90;;;4.03;;
10805;SDS011;5455;53.224;6.000;2023-03-21T08:48:24;7.27;;;4.10;;
10805;SDS011;5455;53.224;6.000;2023-03-21T08:50:52;5.20;;;4.10;;
10805;SDS011;5455;53.224;6.000;2023-03-21T08:53:19;6.33;;;4.50;;
10805;SDS011;5455;53.224;6.000;2023-03-21T08:55:47;7.27;;;4.50;;
10805;SDS011;5455;53.224;6.000;2023-03-21T08:58:15;6.37;;;4.70;;
10805;SDS011;5455;53.224;6.000;2023-03-21T09:00:42;10.10;;;5.80;;
10805;SDS011;5455;53.224;6.000;2023-03-21T09:03:09;7.63;;;5.73;;
10805;SDS011;5455;53.224;6.000;2023-03-21T09:05:37;8.63;;;5.73;;
10805;SDS011;5455;53.224;6.000;2023-03-21T09:08:04;6.90;;;5.60;;
10805;SDS011;5455;53.224;6.000;2023-03-21T09:10:31;10.57;;;5.90;;
10805;SDS011;5455;53.224;6.000;2023-03-21T09:12:58;7.83;;;5.70;;
10805;SDS011;5455;53.224;6.000;2023-03-21T09:15:26;10.33;;;5.17;;
10805;SDS011;5455;53.224;6.000;2023-03-21T09:17:54;8.87;;;5.33;;
10805;SDS011;5455;53.224;6.000;2023-03-21T09:20:24;8.77;;;5.40;;
10805;SDS011;5455;53.224;6.000;2023-03-21T09:22:57;8.00;;;5.57;;
10805;SDS011;5455;53.224;6.000;2023-03-21T09:25:25;10.33;;;5.77;;
10805;SDS011;5455;53.224;6.000;2023-03-21T09:27:54;8.43;;;5.70;;
10805;SDS011;5455;53.224;6.000;2023-03-21T09:30:23;8.00;;;5.60;;
10805;SDS011;5455;53.224;6.000;2023-03-21T09:32:52;7.83;;;5.47;;
10805;SDS011;5455;53.224;6.000;2023-03-21T09:35:21;7.67;;;5.53;;
10805;SDS011;5455;53.224;6.000;2023-03-21T09:37:50;7.87;;;6.03;;
10805;SDS011;5455;53.224;6.000;2023-03-21T09:45:59;8.03;;;5.47;;
10805;SDS011;5455;53.224;6.000;2023-03-21T09:48:42;8.73;;;6.30;;
10805;SDS011;5455;53.224;6.000;2023-03-21T09:51:25;9.93;;;6.53;;
10805;SDS011;5455;53.224;6.000;2023-03-21T09:54:06;10.70;;;6.20;;
10805;SDS011;5455;53.224;6.000;2023-03-21T09:56:39;9.33;;;6.33;;
10805;SDS011;5455;53.224;6.000;2023-03-21T09:59:09;10.80;;;6.53;;
10805;SDS011;5455;53.224;6.000;2023-03-21T10:01:47;8.30;;;6.23;;
10805;SDS011;5455;53.224;6.000;2023-03-21T10:04:15;11.23;;;6.30;;
10805;SDS011;5455;53.224;6.000;2023-03-21T10:06:46;10.30;;;5.90;;
10805;SDS011;5455;53.224;6.000;2023-03-21T10:09:20;8.27;;;5.40;;
10805;SDS011;5455;53.224;6.000;2023-03-21T10:12:23;12.30;;;5.47;;
10805;SDS011;5455;53.224;6.000;2023-03-21T10:14:51;8.20;;;5.10;;
10805;SDS011;5455;53.224;6.000;2023-03-21T10:17:28;8.40;;;5.77;;
10805;SDS011;5455;53.224;6.000;2023-03-21T10:20:13;9.20;;;5.77;;
10805;SDS011;5455;53.224;6.000;2023-03-21T10:22:47;8.70;;;5.60;;
10805;SDS011;5455;53.224;6.000;2023-03-21T10:25:18;9.73;;;6.13;;
10805;SDS011;5455;53.224;6.000;2023-03-21T10:27:47;7.80;;;5.53;;
10805;SDS011;5455;53.224;6.000;2023-03-21T10:30:21;10.20;;;6.00;;
10805;SDS011;5455;53.224;6.000;2023-03-21T10:32:55;9.23;;;5.70;;
10805;SDS011;5455;53.224;6.000;2023-03-21T10:35:25;10.17;;;5.63;;
10805;SDS011;5455;53.224;6.000;2023-03-21T10:37:53;10.77;;;5.67;;
10805;SDS011;5455;53.224;6.000;2023-03-21T10:40:20;10.90;;;4.87;;
10805;SDS011;5455;53.224;6.000;2023-03-21T10:42:47;9.57;;;5.90;;
10805;SDS011;5455;53.224;6.000;2023-03-21T10:45:15;11.47;;;5.63;;
10805;SDS011;5455;53.224;6.000;2023-03-21T10:47:49;7.03;;;4.80;;
10805;SDS011;5455;53.224;6.000;2023-03-21T10:50:18;7.80;;;4.47;;
10805;SDS011;5455;53.224;6.000;2023-03-21T10:52:52;8.37;;;4.63;;
10805;SDS011;5455;53.224;6.000;2023-03-21T10:55:29;9.60;;;4.70;;
10805;SDS011;5455;53.224;6.000;2023-03-21T10:57:59;7.60;;;4.30;;
10805;SDS011;5455;53.224;6.000;2023-03-21T11:00:35;7.47;;;4.30;;
10805;SDS011;5455;53.224;6.000;2023-03-21T11:03:04;5.30;;;4.10;;
10805;SDS011;5455;53.224;6.000;2023-03-21T11:05:36;7.07;;;3.80;;
10805;SDS011;5455;53.224;6.000;2023-03-21T11:08:10;6.77;;;3.73;;
10805;SDS011;5455;53.224;6.000;2023-03-21T11:10:54;8.70;;;3.80;;
10805;SDS011;5455;53.224;6.000;2023-03-21T11:13:40;5.83;;;4.13;;
10805;SDS011;5455;53.224;6.000;2023-03-21T11:16:21;8.50;;;4.27;;
10805;SDS011;5455;53.224;6.000;2023-03-21T11:18:51;7.70;;;3.80;;
10805;SDS011;5455;53.224;6.000;2023-03-21T11:21:22;7.90;;;3.57;;
10805;SDS011;5455;53.224;6.000;2023-03-21T11:23:55;7.47;;;3.97;;
10805;SDS011;5455;53.224;6.000;2023-03-21T11:26:26;8.00;;;3.83;;
10805;SDS011;5455;53.224;6.000;2023-03-21T11:28:56;7.43;;;3.83;;
10805;SDS011;5455;53.224;6.000;2023-03-21T11:31:35;8.23;;;4.80;;
10805;SDS011;5455;53.224;6.000;2023-03-21T11:34:06;8.07;;;4.10;;
10805;SDS011;5455;53.224;6.000;2023-03-21T11:36:35;7.43;;;4.40;;
10805;SDS011;5455;53.224;6.000;2023-03-21T11:41:38;9.37;;;4.10;;
10805;SDS011;5455;53.224;6.000;2023-03-21T11:44:21;6.30;;;4.33;;
10805;SDS011;5455;53.224;6.000;2023-03-21T11:46:52;8.73;;;4.03;;
10805;SDS011;5455;53.224;6.000;2023-03-21T11:49:20;6.73;;;4.13;;
10805;SDS011;5455;53.224;6.000;2023-03-21T12:00:10;7.73;;;4.17;;
10805;SDS011;5455;53.224;6.000;2023-03-21T12:06:18;8.47;;;4.30;;
10805;SDS011;5455;53.224;6.000;2023-03-21T12:11:23;8.40;;;3.90;;
10805;SDS011;5455;53.224;6.000;2023-03-21T12:14:25;9.00;;;4.57;;
10805;SDS011;5455;53.224;6.000;2023-03-21T12:20:28;7.47;;;4.53;;
10805;SDS011;5455;53.224;6.000;2023-03-21T12:34:03;9.67;;;4.60;;
10805;SDS011;5455;53.224;6.000;2023-03-21T12:39:34;7.83;;;4.70;;
10805;SDS011;5455;53.224;6.000;2023-03-21T12:48:36;9.63;;;5.63;;
10805;SDS011;5455;53.224;6.000;2023-03-21T12:51:28;9.47;;;5.60;;
10805;SDS011;5455;53.224;6.000;2023-03-21T12:56:59;9.40;;;5.30;;
10805;SDS011;5455;53.224;6.000;2023-03-21T12:59:48;8.87;;;6.10;;
10805;SDS011;5455;53.224;6.000;2023-03-21T13:02:32;7.17;;;5.40;;
10805;SDS011;5455;53.224;6.000;2023-03-21T13:05:07;10.33;;;5.43;;
10805;SDS011;5455;53.224;6.000;2023-03-21T13:07:44;8.70;;;6.07;;
10805;SDS011;5455;53.224;6.000;2023-03-21T13:10:17;10.47;;;5.60;;
10805;SDS011;5455;53.224;6.000;2023-03-21T13:12:53;9.00;;;5.67;;
10805;SDS011;5455;53.224;6.000;2023-03-21T13:24:02;10.73;;;5.67;;
10805;SDS011;5455;53.224;6.000;2023-03-21T13:26:40;8.07;;;5.17;;
10805;SDS011;5455;53.224;6.000;2023-03-21T13:31:47;10.67;;;6.30;;
10805;SDS011;5455;53.224;6.000;2023-03-21T13:34:23;10.03;;;6.00;;
10805;SDS011;5455;53.224;6.000;2023-03-21T13:36:52;9.07;;;5.77;;
10805;SDS011;5455;53.224;6.000;2023-03-21T13:39:25;12.33;;;5.83;;
10805;SDS011;5455;53.224;6.000;2023-03-21T13:41:54;11.33;;;6.30;;
10805;SDS011;5455;53.224;6.000;2023-03-21T13:44:38;12.20;;;6.63;;
10805;SDS011;5455;53.224;6.000;2023-03-21T13:50:27;9.83;;;6.03;;
10805;SDS011;5455;53.224;6.000;2023-03-21T13:53:09;11.67;;;6.77;;
10805;SDS011;5455;53.224;6.000;2023-03-21T13:55:45;12.63;;;6.40;;
10805;SDS011;5455;53.224;6.000;2023-03-21T14:04:02;12.37;;;6.83;;
10805;SDS011;5455;53.224;6.000;2023-03-21T14:06:48;11.47;;;6.47;;
10805;SDS011;5455;53.224;6.000;2023-03-21T14:09:18;10.17;;;6.80;;
10805;SDS011;5455;53.224;6.000;2023-03-21T14:12:07;10.47;;;6.37;;
10805;SDS011;5455;53.224;6.000;2023-03-21T14:14:40;10.63;;;5.73;;
10805;SDS011;5455;53.224;6.000;2023-03-21T14:17:25;8.60;;;5.07;;
10805;SDS011;5455;53.224;6.000;2023-03-21T14:19:54;9.30;;;6.03;;
10805;SDS011;5455;53.224;6.000;2023-03-21T14:22:26;9.57;;;5.07;;
10805;SDS011;5455;53.224;6.000;2023-03-21T14:24:58;9.90;;;5.33;;
10805;SDS011;5455;53.224;6.000;2023-03-21T14:27:28;9.60;;;5.10;;
10805;SDS011;5455;53.224;6.000;2023-03-21T14:29:58;9.47;;;5.47;;
10805;SDS011;5455;53.224;6.000;2023-03-21T14:32:27;13.37;;;7.23;;
10805;SDS011;5455;53.224;6.000;2023-03-21T14:34:57;12.57;;;7.17;;
10805;SDS011;5455;53.224;6.000;2023-03-21T14:37:27;11.73;;;5.50;;
10805;SDS011;5455;53.224;6.000;2023-03-21T14:39:59;9.60;;;5.60;;
10805;SDS011;5455;53.224;6.000;2023-03-21T14:42:32;10.17;;;5.07;;
10805;SDS011;5455;53.224;6.000;2023-03-21T14:45:13;9.57;;;5.60;;
10805;SDS011;5455;53.224;6.000;2023-03-21T14:50:35;10.80;;;5.67;;
10805;SDS011;5455;53.224;6.000;2023-03-21T14:53:06;10.10;;;6.03;;
10805;SDS011;5455;53.224;6.000;2023-03-21T14:55:41;6.97;;;5.73;;
10805;SDS011;5455;53.224;6.000;2023-03-21T14:58:13;12.83;;;6.80;;
10805;SDS011;5455;53.224;6.000;2023-03-21T15:00:45;7.63;;;5.93;;
10805;SDS011;5455;53.224;6.000;2023-03-21T15:03:16;9.20;;;6.37;;
10805;SDS011;5455;53.224;6.000;2023-03-21T15:05:46;11.13;;;6.40;;
10805;SDS011;5455;53.224;6.000;2023-03-21T15:08:14;12.57;;;6.20;;
10805;SDS011;5455;53.224;6.000;2023-03-21T15:13:36;7.17;;;5.53;;
10805;SDS011;5455;53.224;6.000;2023-03-21T15:16:11;11.30;;;6.40;;
10805;SDS011;5455;53.224;6.000;2023-03-21T15:18:41;10.67;;;5.63;;
10805;SDS011;5455;53.224;6.000;2023-03-21T15:21:11;8.37;;;5.67;;
10805;SDS011;5455;53.224;6.000;2023-03-21T15:23:45;8.43;;;5.27;;
10805;SDS011;5455;53.224;6.000;2023-03-21T15:26:14;11.03;;;5.87;;
10805;SDS011;5455;53.224;6.000;2023-03-21T15:28:45;8.10;;;5.03;;
10805;SDS011;5455;53.224;6.000;2023-03-21T15:31:18;9.67;;;6.07;;
10805;SDS011;5455;53.224;6.000;2023-03-21T15:33:52;12.50;;;6.07;;
10805;SDS011;5455;53.224;6.000;2023-03-21T15:36:21;8.40;;;6.43;;
10805;SDS011;5455;53.224;6.000;2023-03-21T15:38:53;10.17;;;6.00;;
10805;SDS011;5455;53.224;6.000;2023-03-21T15:46:41;10.83;;;6.27;;
10805;SDS011;5455;53.224;6.000;2023-03-21T15:54:44;9.07;;;6.57;;
10805;SDS011;5455;53.224;6.000;2023-03-21T15:57:37;10.73;;;6.07;;
10805;SDS011;5455;53.224;6.000;2023-03-21T16:00:08;10.57;;;6.13;;
10805;SDS011;5455;53.224;6.000;2023-03-21T16:02:54;11.40;;;6.07;;
10805;SDS011;5455;53.224;6.000;2023-03-21T16:05:28;10.67;;;6.53;;
10805;SDS011;5455;53.224;6.000;2023-03-21T16:08:19;7.43;;;5.63;;
10805;SDS011;5455;53.224;6.000;2023-03-21T16:10:52;6.63;;;5.33;;
10805;SDS011;5455;53.224;6.000;2023-03-21T16:13:20;6.90;;;5.47;;
10805;SDS011;5455;53.224;6.000;2023-03-21T16:15:46;7.50;;;5.00;;
10805;SDS011;5455;53.224;6.000;2023-03-21T16:18:14;7.77;;;5.17;;
10805;SDS011;5455;53.224;6.000;2023-03-21T16:20:45;7.03;;;4.93;;
10805;SDS011;5455;53.224;6.000;2023-03-21T16:23:13;7.73;;;5.47;;
10805;SDS011;5455;53.224;6.000;2023-03-21T16:25:41;7.63;;;4.87;;
10805;SDS011;5455;53.224;6.000;2023-03-21T16:28:11;7.37;;;4.90;;
10805;SDS011;5455;53.224;6.000;2023-03-21T16:30:42;8.23;;;4.60;;
10805;SDS011;5455;53.224;6.000;2023-03-21T16:33:09;7.73;;;4.97;;
10805;SDS011;5455;53.224;6.000;2023-03-21T16:35:37;9.20;;;5.13;;
10805;SDS011;5455;53.224;6.000;2023-03-21T16:38:05;6.57;;;5.13;;
10805;SDS011;5455;53.224;6.000;2023-03-21T16:40:38;8.43;;;5.60;;
10805;SDS011;5455;53.224;6.000;2023-03-21T16:43:08;6.00;;;5.13;;
10805;SDS011;5455;53.224;6.000;2023-03-21T16:45:35;6.77;;;4.57;;
10805;SDS011;5455;53.224;6.000;2023-03-21T16:48:03;7.27;;;4.77;;
10805;SDS011;5455;53.224;6.000;2023-03-21T16:50:35;6.50;;;4.43;;
10805;SDS011;5455;53.224;6.000;2023-03-21T16:53:06;7.03;;;4.27;;
10805;SDS011;5455;53.224;6.000;2023-03-21T16:55:34;6.50;;;3.77;;
10805;SDS011;5455;53.224;6.000;2023-03-21T16:58:03;6.10;;;4.00;;
10805;SDS011;5455;53.224;6.000;2023-03-21T17:00:31;6.07;;;4.13;;
10805;SDS011;5455;53.224;6.000;2023-03-21T17:02:59;6.13;;;3.97;;
10805;SDS011;5455;53.224;6.000;2023-03-21T17:05:28;5.20;;;3.47;;
10805;SDS011;5455;53.224;6.000;2023-03-21T17:07:58;5.57;;;3.70;;
10805;SDS011;5455;53.224;6.000;2023-03-21T17:10:29;5.07;;;3.97;;
10805;SDS011;5455;53.224;6.000;2023-03-21T17:12:57;3.53;;;3.00;;
10805;SDS011;5455;53.224;6.000;2023-03-21T17:15:25;9.37;;;3.53;;
10805;SDS011;5455;53.224;6.000;2023-03-21T17:17:52;4.40;;;3.20;;
10805;SDS011;5455;53.224;6.000;2023-03-21T17:20:22;4.27;;;3.40;;
10805;SDS011;5455;53.224;6.000;2023-03-21T17:23:00;5.20;;;3.40;;
10805;SDS011;5455;53.224;6.000;2023-03-21T17:25:27;4.30;;;3.17;;
10805;SDS011;5455;53.224;6.000;2023-03-21T17:27:54;4.40;;;2.80;;
10805;SDS011;5455;53.224;6.000;2023-03-21T17:30:25;5.40;;;2.90;;